El Bolson, Argentina
Current Conditions -  °F | °C
As of 6:00 PM on Wednesday 22 Oct 2014 (Local Time) from SAZS Reporting Station
Clear Clear  
Wind Chill: 61°   Ceiling: Unl
Heat Index: 61°   Visibility: 6mi
Dew Point: 28°   Wind: 20mph
Humidity: 29%   Direction: 320°NW
Pressure: 30.09"   Gusts: NA
Location:  41.97°S, 71.52°W
Report Text: SAZS 222100Z 32017KT CAVOK 16/M02 Q1019
Loading
Personal Weather Stations






























Interactive Weather Map
Tropical Storm Tracking
New forecast layout! Learn more

10-Day Weather Forecast

Advertisements
Track Severe Weather on mobile